sensor_id;sensor_type;location;lat;lon;timestamp;temperature;humidity
13336;DHT22;6737;51.480;11.962;2023-05-10T00:01:07;12.80;99.90
13336;DHT22;6737;51.480;11.962;2023-05-10T00:03:33;12.70;99.90
13336;DHT22;6737;51.480;11.962;2023-05-10T00:05:59;12.70;99.90
13336;DHT22;6737;51.480;11.962;2023-05-10T00:08:25;12.70;99.90
13336;DHT22;6737;51.480;11.962;2023-05-10T00:10:51;12.70;99.90
13336;DHT22;6737;51.480;11.962;2023-05-10T00:13:17;12.60;99.90
13336;DHT22;6737;51.480;11.962;2023-05-10T00:15:42;12.60;99.90
13336;DHT22;6737;51.480;11.962;2023-05-10T00:18:08;12.50;99.90
13336;DHT22;6737;51.480;11.962;2023-05-10T00:20:34;12.50;99.90
13336;DHT22;6737;51.480;11.962;2023-05-10T00:23:00;12.50;99.90
13336;DHT22;6737;51.480;11.962;2023-05-10T00:25:26;12.50;99.90
13336;DHT22;6737;51.480;11.962;2023-05-10T00:27:51;12.40;99.90
13336;DHT22;6737;51.480;11.962;2023-05-10T00:30:17;12.40;99.90
13336;DHT22;6737;51.480;11.962;2023-05-10T00:32:44;12.40;99.90
13336;DHT22;6737;51.480;11.962;2023-05-10T00:35:10;12.40;99.90
13336;DHT22;6737;51.480;11.962;2023-05-10T00:37:36;12.30;99.90
13336;DHT22;6737;51.480;11.962;2023-05-10T00:40:02;12.20;99.90
13336;DHT22;6737;51.480;11.962;2023-05-10T00:42:28;12.20;99.90
13336;DHT22;6737;51.480;11.962;2023-05-10T00:44:53;12.20;99.90
13336;DHT22;6737;51.480;11.962;2023-05-10T00:47:19;12.10;99.90
13336;DHT22;6737;51.480;11.962;2023-05-10T00:49:45;12.10;99.90
13336;DHT22;6737;51.480;11.962;2023-05-10T00:52:11;12.10;99.90
13336;DHT22;6737;51.480;11.962;2023-05-10T00:54:37;12.00;99.90
13336;DHT22;6737;51.480;11.962;2023-05-10T00:57:03;12.00;99.90
13336;DHT22;6737;51.480;11.962;2023-05-10T00:59:29;12.00;99.90
13336;DHT22;6737;51.480;11.962;2023-05-10T01:01:55;12.00;99.90
13336;DHT22;6737;51.480;11.962;2023-05-10T01:04:21;12.00;99.90
13336;DHT22;6737;51.480;11.962;2023-05-10T01:06:52;12.00;99.90
13336;DHT22;6737;51.480;11.962;2023-05-10T01:09:20;12.00;99.90
13336;DHT22;6737;51.480;11.962;2023-05-10T01:11:46;12.00;99.90
13336;DHT22;6737;51.480;11.962;2023-05-10T01:14:13;11.90;99.90
13336;DHT22;6737;51.480;11.962;2023-05-10T01:16:41;11.90;99.90
13336;DHT22;6737;51.480;11.962;2023-05-10T01:19:23;11.90;99.90
13336;DHT22;6737;51.480;11.962;2023-05-10T01:36:13;11.80;99.90
13336;DHT22;6737;51.480;11.962;2023-05-10T01:38:55;11.80;99.90
13336;DHT22;6737;51.480;11.962;2023-05-10T01:41:59;11.60;99.90
13336;DHT22;6737;51.480;11.962;2023-05-10T01:47:20;11.60;99.90
13336;DHT22;6737;51.480;11.962;2023-05-10T01:49:53;11.50;99.90
13336;DHT22;6737;51.480;11.962;2023-05-10T01:52:25;11.50;99.90
13336;DHT22;6737;51.480;11.962;2023-05-10T01:55:04;11.50;99.90
13336;DHT22;6737;51.480;11.962;2023-05-10T01:57:34;11.50;99.90
13336;DHT22;6737;51.480;11.962;2023-05-10T02:00:02;11.40;99.90
13336;DHT22;6737;51.480;11.962;2023-05-10T02:02:38;11.40;99.90
13336;DHT22;6737;51.480;11.962;2023-05-10T02:05:08;11.40;99.90
13336;DHT22;6737;51.480;11.962;2023-05-10T02:07:37;11.40;99.90
13336;DHT22;6737;51.480;11.962;2023-05-10T02:10:06;11.40;99.90
13336;DHT22;6737;51.480;11.962;2023-05-10T02:12:37;11.40;99.90
13336;DHT22;6737;51.480;11.962;2023-05-10T02:15:05;11.40;99.90
13336;DHT22;6737;51.480;11.962;2023-05-10T02:17:33;11.30;99.90
13336;DHT22;6737;51.480;11.962;2023-05-10T02:20:01;11.20;99.90
13336;DHT22;6737;51.480;11.962;2023-05-10T02:22:28;11.20;99.90
13336;DHT22;6737;51.480;11.962;2023-05-10T02:24:56;11.10;99.90
13336;DHT22;6737;51.480;11.962;2023-05-10T02:27:23;11.10;99.90
13336;DHT22;6737;51.480;11.962;2023-05-10T02:29:51;11.10;99.90
13336;DHT22;6737;51.480;11.962;2023-05-10T02:32:18;11.20;99.90
13336;DHT22;6737;51.480;11.962;2023-05-10T02:34:45;11.10;99.90
13336;DHT22;6737;51.480;11.962;2023-05-10T02:37:19;11.20;99.90
13336;DHT22;6737;51.480;11.962;2023-05-10T02:39:50;11.10;99.90
13336;DHT22;6737;51.480;11.962;2023-05-10T02:42:18;11.10;99.90
13336;DHT22;6737;51.480;11.962;2023-05-10T02:44:48;11.00;99.90
13336;DHT22;6737;51.480;11.962;2023-05-10T02:47:15;10.80;99.90
13336;DHT22;6737;51.480;11.962;2023-05-10T02:49:41;10.70;99.90
13336;DHT22;6737;51.480;11.962;2023-05-10T02:52:07;10.70;99.90
13336;DHT22;6737;51.480;11.962;2023-05-10T02:54:46;10.80;99.90
13336;DHT22;6737;51.480;11.962;2023-05-10T02:57:16;10.80;99.90
13336;DHT22;6737;51.480;11.962;2023-05-10T02:59:45;10.80;99.90
13336;DHT22;6737;51.480;11.962;2023-05-10T03:02:14;10.70;99.90
13336;DHT22;6737;51.480;11.962;2023-05-10T03:04:40;10.70;99.90
13336;DHT22;6737;51.480;11.962;2023-05-10T03:07:06;10.70;99.90
13336;DHT22;6737;51.480;11.962;2023-05-10T03:09:33;10.70;99.90
13336;DHT22;6737;51.480;11.962;2023-05-10T03:12:49;10.80;99.90
13336;DHT22;6737;51.480;11.962;2023-05-10T03:15:11;10.80;99.90
13336;DHT22;6737;51.480;11.962;2023-05-10T03:17:55;10.80;99.90
13336;DHT22;6737;51.480;11.962;2023-05-10T03:20:36;10.80;99.90
13336;DHT22;6737;51.480;11.962;2023-05-10T03:23:34;10.70;99.90
13336;DHT22;6737;51.480;11.962;2023-05-10T03:26:00;10.80;99.90
13336;DHT22;6737;51.480;11.962;2023-05-10T03:28:27;10.70;99.90
13336;DHT22;6737;51.480;11.962;2023-05-10T03:30:54;10.70;99.90
13336;DHT22;6737;51.480;11.962;2023-05-10T03:33:20;10.70;99.90
13336;DHT22;6737;51.480;11.962;2023-05-10T03:35:46;10.80;99.90
13336;DHT22;6737;51.480;11.962;2023-05-10T03:38:12;10.80;99.90
13336;DHT22;6737;51.480;11.962;2023-05-10T03:40:39;10.80;99.90
13336;DHT22;6737;51.480;11.962;2023-05-10T03:43:05;10.80;99.90
13336;DHT22;6737;51.480;11.962;2023-05-10T03:45:30;10.80;99.90
13336;DHT22;6737;51.480;11.962;2023-05-10T03:47:57;10.80;99.90
13336;DHT22;6737;51.480;11.962;2023-05-10T03:50:23;10.80;99.90
13336;DHT22;6737;51.480;11.962;2023-05-10T03:52:49;10.80;99.90
13336;DHT22;6737;51.480;11.962;2023-05-10T03:55:15;10.80;99.90
13336;DHT22;6737;51.480;11.962;2023-05-10T03:57:42;10.80;99.90
13336;DHT22;6737;51.480;11.962;2023-05-10T04:00:08;10.90;99.90
13336;DHT22;6737;51.480;11.962;2023-05-10T04:02:35;10.90;99.90
13336;DHT22;6737;51.480;11.962;2023-05-10T04:05:01;11.00;99.90
13336;DHT22;6737;51.480;11.962;2023-05-10T04:07:26;11.10;99.90
13336;DHT22;6737;51.480;11.962;2023-05-10T04:09:52;11.20;99.90
13336;DHT22;6737;51.480;11.962;2023-05-10T04:12:18;11.20;99.90
13336;DHT22;6737;51.480;11.962;2023-05-10T04:14:44;11.30;99.90
13336;DHT22;6737;51.480;11.962;2023-05-10T04:17:09;11.30;99.90
13336;DHT22;6737;51.480;11.962;2023-05-10T04:19:35;11.40;99.90
13336;DHT22;6737;51.480;11.962;2023-05-10T04:22:02;11.40;99.90
13336;DHT22;6737;51.480;11.962;2023-05-10T04:24:28;11.40;99.90
13336;DHT22;6737;51.480;11.962;2023-05-10T04:26:54;11.50;99.90
13336;DHT22;6737;51.480;11.962;2023-05-10T04:29:20;11.50;99.90
13336;DHT22;6737;51.480;11.962;2023-05-10T04:31:46;11.60;99.90
13336;DHT22;6737;51.480;11.962;2023-05-10T04:34:12;11.60;99.90
13336;DHT22;6737;51.480;11.962;2023-05-10T04:36:38;11.60;99.90
13336;DHT22;6737;51.480;11.962;2023-05-10T04:39:04;11.60;99.90
13336;DHT22;6737;51.480;11.962;2023-05-10T04:41:30;11.70;99.90
13336;DHT22;6737;51.480;11.962;2023-05-10T04:43:55;11.70;99.90
13336;DHT22;6737;51.480;11.962;2023-05-10T04:46:21;11.80;99.90
13336;DHT22;6737;51.480;11.962;2023-05-10T04:48:47;11.80;99.90
13336;DHT22;6737;51.480;11.962;2023-05-10T04:51:13;11.80;99.90
13336;DHT22;6737;51.480;11.962;2023-05-10T04:53:39;11.80;99.90
13336;DHT22;6737;51.480;11.962;2023-05-10T04:56:05;11.90;99.90
13336;DHT22;6737;51.480;11.962;2023-05-10T04:58:31;11.90;99.90
13336;DHT22;6737;51.480;11.962;2023-05-10T05:00:57;12.00;99.90
13336;DHT22;6737;51.480;11.962;2023-05-10T05:03:22;12.00;99.90
13336;DHT22;6737;51.480;11.962;2023-05-10T05:05:48;12.10;99.90
13336;DHT22;6737;51.480;11.962;2023-05-10T05:08:14;12.10;99.90
13336;DHT22;6737;51.480;11.962;2023-05-10T05:10:40;12.10;99.90
13336;DHT22;6737;51.480;11.962;2023-05-10T05:13:06;12.20;99.90
13336;DHT22;6737;51.480;11.962;2023-05-10T05:15:32;12.20;99.90
13336;DHT22;6737;51.480;11.962;2023-05-10T05:17:57;12.20;99.90
13336;DHT22;6737;51.480;11.962;2023-05-10T05:20:23;12.30;99.90
13336;DHT22;6737;51.480;11.962;2023-05-10T05:22:49;12.30;99.90
13336;DHT22;6737;51.480;11.962;2023-05-10T05:25:15;12.30;99.90
13336;DHT22;6737;51.480;11.962;2023-05-10T05:27:41;12.30;99.90
13336;DHT22;6737;51.480;11.962;2023-05-10T05:30:08;12.40;99.90
13336;DHT22;6737;51.480;11.962;2023-05-10T05:32:34;12.40;99.90
13336;DHT22;6737;51.480;11.962;2023-05-10T05:34:59;12.40;99.90
13336;DHT22;6737;51.480;11.962;2023-05-10T05:37:25;12.40;99.90
13336;DHT22;6737;51.480;11.962;2023-05-10T05:39:52;12.50;99.90
13336;DHT22;6737;51.480;11.962;2023-05-10T05:42:20;12.50;99.90
13336;DHT22;6737;51.480;11.962;2023-05-10T05:44:45;12.60;99.90
13336;DHT22;6737;51.480;11.962;2023-05-10T05:47:11;12.60;99.90
13336;DHT22;6737;51.480;11.962;2023-05-10T05:49:37;12.70;99.90
13336;DHT22;6737;51.480;11.962;2023-05-10T05:52:04;12.80;99.90
13336;DHT22;6737;51.480;11.962;2023-05-10T05:54:30;12.80;99.90
13336;DHT22;6737;51.480;11.962;2023-05-10T05:56:57;12.90;99.90
13336;DHT22;6737;51.480;11.962;2023-05-10T05:59:24;12.90;99.90
13336;DHT22;6737;51.480;11.962;2023-05-10T06:01:50;13.00;99.90
13336;DHT22;6737;51.480;11.962;2023-05-10T06:04:16;13.10;99.90
13336;DHT22;6737;51.480;11.962;2023-05-10T06:06:42;13.10;99.90
13336;DHT22;6737;51.480;11.962;2023-05-10T06:09:09;13.20;99.90
13336;DHT22;6737;51.480;11.962;2023-05-10T06:11:35;13.20;99.90
13336;DHT22;6737;51.480;11.962;2023-05-10T06:14:02;13.20;99.90
13336;DHT22;6737;51.480;11.962;2023-05-10T06:16:30;13.30;99.90
13336;DHT22;6737;51.480;11.962;2023-05-10T06:18:56;13.30;99.90
13336;DHT22;6737;51.480;11.962;2023-05-10T06:21:22;13.40;99.90
13336;DHT22;6737;51.480;11.962;2023-05-10T06:23:48;13.40;99.90
13336;DHT22;6737;51.480;11.962;2023-05-10T06:26:13;13.50;99.90
13336;DHT22;6737;51.480;11.962;2023-05-10T06:28:39;13.60;99.90
13336;DHT22;6737;51.480;11.962;2023-05-10T06:31:06;13.60;99.90
13336;DHT22;6737;51.480;11.962;2023-05-10T06:33:33;13.70;99.90
13336;DHT22;6737;51.480;11.962;2023-05-10T06:35:59;13.70;99.90
13336;DHT22;6737;51.480;11.962;2023-05-10T06:38:25;13.80;99.90
13336;DHT22;6737;51.480;11.962;2023-05-10T06:40:51;13.80;99.90
13336;DHT22;6737;51.480;11.962;2023-05-10T06:43:17;13.90;99.90
13336;DHT22;6737;51.480;11.962;2023-05-10T06:45:43;13.90;99.90
13336;DHT22;6737;51.480;11.962;2023-05-10T06:48:09;14.00;99.90
13336;DHT22;6737;51.480;11.962;2023-05-10T06:50:35;14.00;99.90
13336;DHT22;6737;51.480;11.962;2023-05-10T06:53:01;14.10;99.90
13336;DHT22;6737;51.480;11.962;2023-05-10T06:55:27;14.10;99.90
13336;DHT22;6737;51.480;11.962;2023-05-10T06:57:53;14.10;99.90
13336;DHT22;6737;51.480;11.962;2023-05-10T07:00:19;14.10;99.90
13336;DHT22;6737;51.480;11.962;2023-05-10T07:02:46;14.20;99.90
13336;DHT22;6737;51.480;11.962;2023-05-10T07:05:13;14.20;99.90
13336;DHT22;6737;51.480;11.962;2023-05-10T07:07:39;14.20;99.90
13336;DHT22;6737;51.480;11.962;2023-05-10T07:10:06;14.20;99.90
13336;DHT22;6737;51.480;11.962;2023-05-10T07:12:33;14.10;99.90
13336;DHT22;6737;51.480;11.962;2023-05-10T07:14:59;14.20;99.90
13336;DHT22;6737;51.480;11.962;2023-05-10T07:17:25;14.20;99.90
13336;DHT22;6737;51.480;11.962;2023-05-10T07:19:50;14.20;99.90
13336;DHT22;6737;51.480;11.962;2023-05-10T07:22:16;14.20;99.90
13336;DHT22;6737;51.480;11.962;2023-05-10T07:24:43;14.20;99.90
13336;DHT22;6737;51.480;11.962;2023-05-10T07:27:09;14.20;99.90
13336;DHT22;6737;51.480;11.962;2023-05-10T07:29:35;14.20;99.90
13336;DHT22;6737;51.480;11.962;2023-05-10T07:32:01;14.10;99.90
13336;DHT22;6737;51.480;11.962;2023-05-10T07:34:27;14.10;99.90
13336;DHT22;6737;51.480;11.962;2023-05-10T07:36:57;14.10;99.90
13336;DHT22;6737;51.480;11.962;2023-05-10T07:39:23;14.10;99.90
13336;DHT22;6737;51.480;11.962;2023-05-10T07:41:49;14.10;99.90
13336;DHT22;6737;51.480;11.962;2023-05-10T07:44:15;14.10;99.90
13336;DHT22;6737;51.480;11.962;2023-05-10T07:46:43;14.10;99.90
13336;DHT22;6737;51.480;11.962;2023-05-10T07:49:09;14.10;99.90
13336;DHT22;6737;51.480;11.962;2023-05-10T07:51:35;14.10;99.90
13336;DHT22;6737;51.480;11.962;2023-05-10T07:54:01;14.10;99.90
13336;DHT22;6737;51.480;11.962;2023-05-10T07:56:30;14.10;99.90
13336;DHT22;6737;51.480;11.962;2023-05-10T07:59:01;14.00;99.90
13336;DHT22;6737;51.480;11.962;2023-05-10T08:01:30;14.00;99.90
13336;DHT22;6737;51.480;11.962;2023-05-10T08:03:57;14.00;99.90
13336;DHT22;6737;51.480;11.962;2023-05-10T08:06:22;14.00;99.90
13336;DHT22;6737;51.480;11.962;2023-05-10T08:08:49;13.90;99.90
13336;DHT22;6737;51.480;11.962;2023-05-10T08:11:16;13.90;99.90
13336;DHT22;6737;51.480;11.962;2023-05-10T08:13:44;13.90;99.90
13336;DHT22;6737;51.480;11.962;2023-05-10T08:16:10;13.80;99.90
13336;DHT22;6737;51.480;11.962;2023-05-10T08:18:38;13.80;99.90
13336;DHT22;6737;51.480;11.962;2023-05-10T08:21:05;13.80;99.90
13336;DHT22;6737;51.480;11.962;2023-05-10T08:23:31;13.70;99.90
13336;DHT22;6737;51.480;11.962;2023-05-10T08:25:57;13.70;99.90
13336;DHT22;6737;51.480;11.962;2023-05-10T08:28:22;13.70;99.90
13336;DHT22;6737;51.480;11.962;2023-05-10T08:30:50;13.70;99.90
13336;DHT22;6737;51.480;11.962;2023-05-10T08:33:18;13.70;99.90
13336;DHT22;6737;51.480;11.962;2023-05-10T08:35:44;13.70;99.90
13336;DHT22;6737;51.480;11.962;2023-05-10T08:38:09;13.70;99.90
13336;DHT22;6737;51.480;11.962;2023-05-10T08:40:37;13.70;99.90
13336;DHT22;6737;51.480;11.962;2023-05-10T08:43:09;13.70;99.90
13336;DHT22;6737;51.480;11.962;2023-05-10T08:45:38;13.70;99.90
13336;DHT22;6737;51.480;11.962;2023-05-10T08:48:09;13.80;99.90
13336;DHT22;6737;51.480;11.962;2023-05-10T08:50:37;13.80;99.90
13336;DHT22;6737;51.480;11.962;2023-05-10T08:53:06;13.80;99.90
13336;DHT22;6737;51.480;11.962;2023-05-10T08:55:33;13.80;99.90
13336;DHT22;6737;51.480;11.962;2023-05-10T08:58:00;13.80;99.90
13336;DHT22;6737;51.480;11.962;2023-05-10T09:00:26;13.80;99.90
13336;DHT22;6737;51.480;11.962;2023-05-10T09:02:53;13.80;99.90
13336;DHT22;6737;51.480;11.962;2023-05-10T09:05:19;13.80;99.90
13336;DHT22;6737;51.480;11.962;2023-05-10T09:07:45;13.90;99.90
13336;DHT22;6737;51.480;11.962;2023-05-10T09:10:12;13.90;99.90
13336;DHT22;6737;51.480;11.962;2023-05-10T09:12:38;14.00;99.90
13336;DHT22;6737;51.480;11.962;2023-05-10T09:15:06;14.00;99.90
13336;DHT22;6737;51.480;11.962;2023-05-10T09:17:33;14.10;99.90
13336;DHT22;6737;51.480;11.962;2023-05-10T09:20:01;14.10;99.90
13336;DHT22;6737;51.480;11.962;2023-05-10T09:22:28;14.20;99.90
13336;DHT22;6737;51.480;11.962;2023-05-10T09:27:36;14.20;99.90
13336;DHT22;6737;51.480;11.962;2023-05-10T09:30:03;14.20;99.90
13336;DHT22;6737;51.480;11.962;2023-05-10T09:32:43;14.20;99.90
13336;DHT22;6737;51.480;11.962;2023-05-10T09:35:13;14.20;99.90
13336;DHT22;6737;51.480;11.962;2023-05-10T09:37:41;14.20;99.90
13336;DHT22;6737;51.480;11.962;2023-05-10T09:40:12;14.20;99.90
13336;DHT22;6737;51.480;11.962;2023-05-10T09:42:38;14.30;99.90
13336;DHT22;6737;51.480;11.962;2023-05-10T09:45:05;14.30;99.90
13336;DHT22;6737;51.480;11.962;2023-05-10T09:47:36;14.30;99.90
13336;DHT22;6737;51.480;11.962;2023-05-10T09:50:04;14.30;99.90
13336;DHT22;6737;51.480;11.962;2023-05-10T09:52:49;14.40;99.90
13336;DHT22;6737;51.480;11.962;2023-05-10T09:55:40;14.50;99.90
13336;DHT22;6737;51.480;11.962;2023-05-10T09:58:04;14.50;99.90
13336;DHT22;6737;51.480;11.962;2023-05-10T10:00:37;14.60;99.90
13336;DHT22;6737;51.480;11.962;2023-05-10T10:03:04;14.70;99.90
13336;DHT22;6737;51.480;11.962;2023-05-10T10:05:34;14.70;99.90
13336;DHT22;6737;51.480;11.962;2023-05-10T10:08:04;14.80;99.90
13336;DHT22;6737;51.480;11.962;2023-05-10T10:10:31;14.80;99.90
13336;DHT22;6737;51.480;11.962;2023-05-10T10:12:58;14.90;99.90
13336;DHT22;6737;51.480;11.962;2023-05-10T10:15:25;14.90;99.90
13336;DHT22;6737;51.480;11.962;2023-05-10T10:17:52;14.80;99.90
13336;DHT22;6737;51.480;11.962;2023-05-10T10:20:21;14.90;99.90
13336;DHT22;6737;51.480;11.962;2023-05-10T10:22:48;14.90;99.90
13336;DHT22;6737;51.480;11.962;2023-05-10T10:25:18;14.90;99.90
13336;DHT22;6737;51.480;11.962;2023-05-10T10:35:45;14.90;99.90
13336;DHT22;6737;51.480;11.962;2023-05-10T10:38:15;14.90;99.90
13336;DHT22;6737;51.480;11.962;2023-05-10T10:40:42;14.90;99.90
13336;DHT22;6737;51.480;11.962;2023-05-10T10:43:27;14.90;99.90
13336;DHT22;6737;51.480;11.962;2023-05-10T10:48:39;15.10;99.90
13336;DHT22;6737;51.480;11.962;2023-05-10T10:51:05;15.20;99.90
13336;DHT22;6737;51.480;11.962;2023-05-10T10:53:32;15.30;99.90
13336;DHT22;6737;51.480;11.962;2023-05-10T10:56:13;15.30;99.90
13336;DHT22;6737;51.480;11.962;2023-05-10T10:58:41;15.30;99.90
13336;DHT22;6737;51.480;11.962;2023-05-10T11:01:17;15.40;99.90
13336;DHT22;6737;51.480;11.962;2023-05-10T11:06:32;15.40;99.90
13336;DHT22;6737;51.480;11.962;2023-05-10T11:08:59;15.40;99.90
13336;DHT22;6737;51.480;11.962;2023-05-10T11:11:25;15.50;99.90
13336;DHT22;6737;51.480;11.962;2023-05-10T11:13:51;15.50;99.90
13336;DHT22;6737;51.480;11.962;2023-05-10T11:16:19;15.50;99.90
13336;DHT22;6737;51.480;11.962;2023-05-10T11:19:06;15.50;99.90
13336;DHT22;6737;51.480;11.962;2023-05-10T11:21:34;15.50;99.90
13336;DHT22;6737;51.480;11.962;2023-05-10T11:24:21;15.50;99.90
13336;DHT22;6737;51.480;11.962;2023-05-10T11:26:50;15.50;99.90
13336;DHT22;6737;51.480;11.962;2023-05-10T11:29:17;15.60;99.90
13336;DHT22;6737;51.480;11.962;2023-05-10T11:31:47;15.70;99.90
13336;DHT22;6737;51.480;11.962;2023-05-10T11:34:24;15.70;99.90
13336;DHT22;6737;51.480;11.962;2023-05-10T11:36:54;15.70;99.90
13336;DHT22;6737;51.480;11.962;2023-05-10T11:39:21;15.60;99.90
13336;DHT22;6737;51.480;11.962;2023-05-10T11:41:48;15.60;99.90
13336;DHT22;6737;51.480;11.962;2023-05-10T11:44:14;15.50;99.90
13336;DHT22;6737;51.480;11.962;2023-05-10T11:46:40;15.40;99.90
13336;DHT22;6737;51.480;11.962;2023-05-10T11:49:07;15.40;99.90
13336;DHT22;6737;51.480;11.962;2023-05-10T11:51:35;15.30;99.90
13336;DHT22;6737;51.480;11.962;2023-05-10T11:54:10;15.40;99.90
13336;DHT22;6737;51.480;11.962;2023-05-10T11:56:37;15.40;99.90
13336;DHT22;6737;51.480;11.962;2023-05-10T11:59:04;15.40;99.90
13336;DHT22;6737;51.480;11.962;2023-05-10T12:01:30;15.40;99.90
13336;DHT22;6737;51.480;11.962;2023-05-10T12:03:58;15.40;99.90
13336;DHT22;6737;51.480;11.962;2023-05-10T12:06:30;15.30;99.90
13336;DHT22;6737;51.480;11.962;2023-05-10T12:08:58;15.30;99.90
13336;DHT22;6737;51.480;11.962;2023-05-10T12:11:28;15.30;99.90
13336;DHT22;6737;51.480;11.962;2023-05-10T12:13:55;15.40;99.90
13336;DHT22;6737;51.480;11.962;2023-05-10T12:16:26;15.30;99.90
13336;DHT22;6737;51.480;11.962;2023-05-10T12:18:55;15.20;99.90
13336;DHT22;6737;51.480;11.962;2023-05-10T12:21:22;15.10;99.90
13336;DHT22;6737;51.480;11.962;2023-05-10T12:23:54;15.10;99.90
13336;DHT22;6737;51.480;11.962;2023-05-10T12:26:24;15.00;99.90
13336;DHT22;6737;51.480;11.962;2023-05-10T12:28:53;14.90;99.90
13336;DHT22;6737;51.480;11.962;2023-05-10T12:31:19;14.90;99.90
13336;DHT22;6737;51.480;11.962;2023-05-10T12:33:45;14.90;99.90
13336;DHT22;6737;51.480;11.962;2023-05-10T12:36:14;14.90;99.90
13336;DHT22;6737;51.480;11.962;2023-05-10T12:38:42;14.80;99.90
13336;DHT22;6737;51.480;11.962;2023-05-10T12:41:26;14.80;99.90
13336;DHT22;6737;51.480;11.962;2023-05-10T12:43:52;14.80;99.90
13336;DHT22;6737;51.480;11.962;2023-05-10T12:46:18;14.90;99.90
13336;DHT22;6737;51.480;11.962;2023-05-10T12:48:45;14.90;99.90
13336;DHT22;6737;51.480;11.962;2023-05-10T12:51:12;14.90;99.90
13336;DHT22;6737;51.480;11.962;2023-05-10T12:53:41;14.90;99.90
13336;DHT22;6737;51.480;11.962;2023-05-10T12:56:07;14.90;99.90
13336;DHT22;6737;51.480;11.962;2023-05-10T12:58:33;14.90;99.90
13336;DHT22;6737;51.480;11.962;2023-05-10T13:00:59;14.90;99.90
13336;DHT22;6737;51.480;11.962;2023-05-10T13:03:25;15.00;99.90
13336;DHT22;6737;51.480;11.962;2023-05-10T13:05:51;15.10;99.90
13336;DHT22;6737;51.480;11.962;2023-05-10T13:08:17;15.30;99.90
13336;DHT22;6737;51.480;11.962;2023-05-10T13:10:43;15.30;99.90
13336;DHT22;6737;51.480;11.962;2023-05-10T13:13:09;15.30;99.90
13336;DHT22;6737;51.480;11.962;2023-05-10T13:15:35;15.20;99.90
13336;DHT22;6737;51.480;11.962;2023-05-10T13:18:01;15.20;99.90
13336;DHT22;6737;51.480;11.962;2023-05-10T13:20:27;15.20;99.90
13336;DHT22;6737;51.480;11.962;2023-05-10T13:22:53;15.20;99.90
13336;DHT22;6737;51.480;11.962;2023-05-10T13:25:19;15.30;99.90
13336;DHT22;6737;51.480;11.962;2023-05-10T13:27:45;15.30;99.90
13336;DHT22;6737;51.480;11.962;2023-05-10T13:30:11;15.40;99.90
13336;DHT22;6737;51.480;11.962;2023-05-10T13:32:37;15.40;99.90
13336;DHT22;6737;51.480;11.962;2023-05-10T13:35:04;15.40;99.90
13336;DHT22;6737;51.480;11.962;2023-05-10T13:37:30;15.30;99.90
13336;DHT22;6737;51.480;11.962;2023-05-10T13:39:56;15.30;99.90
13336;DHT22;6737;51.480;11.962;2023-05-10T13:42:23;15.30;99.90
13336;DHT22;6737;51.480;11.962;2023-05-10T13:44:49;15.30;99.90
13336;DHT22;6737;51.480;11.962;2023-05-10T13:47:16;15.40;99.90
13336;DHT22;6737;51.480;11.962;2023-05-10T13:49:41;15.40;99.90
13336;DHT22;6737;51.480;11.962;2023-05-10T13:52:07;15.40;99.90
13336;DHT22;6737;51.480;11.962;2023-05-10T13:54:36;15.40;99.90
13336;DHT22;6737;51.480;11.962;2023-05-10T13:57:03;15.40;99.90
13336;DHT22;6737;51.480;11.962;2023-05-10T13:59:30;15.40;99.90
13336;DHT22;6737;51.480;11.962;2023-05-10T14:01:59;15.40;99.90
13336;DHT22;6737;51.480;11.962;2023-05-10T14:04:28;15.40;99.90
13336;DHT22;6737;51.480;11.962;2023-05-10T14:06:54;15.40;99.90
13336;DHT22;6737;51.480;11.962;2023-05-10T14:09:20;15.40;99.90
13336;DHT22;6737;51.480;11.962;2023-05-10T14:11:46;15.40;99.90
13336;DHT22;6737;51.480;11.962;2023-05-10T14:14:12;15.40;99.90
13336;DHT22;6737;51.480;11.962;2023-05-10T14:16:43;15.40;99.90
13336;DHT22;6737;51.480;11.962;2023-05-10T14:19:10;15.40;99.90
13336;DHT22;6737;51.480;11.962;2023-05-10T14:21:36;15.50;99.90
13336;DHT22;6737;51.480;11.962;2023-05-10T14:24:01;15.40;99.90
13336;DHT22;6737;51.480;11.962;2023-05-10T14:26:27;15.40;99.90
13336;DHT22;6737;51.480;11.962;2023-05-10T14:28:53;15.50;99.90
13336;DHT22;6737;51.480;11.962;2023-05-10T14:31:19;15.40;99.90
13336;DHT22;6737;51.480;11.962;2023-05-10T14:33:49;15.40;99.90
13336;DHT22;6737;51.480;11.962;2023-05-10T14:36:14;15.40;99.90
13336;DHT22;6737;51.480;11.962;2023-05-10T14:38:41;15.40;99.90
13336;DHT22;6737;51.480;11.962;2023-05-10T14:41:07;15.40;99.90
13336;DHT22;6737;51.480;11.962;2023-05-10T14:43:33;15.50;99.90
13336;DHT22;6737;51.480;11.962;2023-05-10T14:45:59;15.50;99.90
13336;DHT22;6737;51.480;11.962;2023-05-10T14:48:24;15.50;99.90
13336;DHT22;6737;51.480;11.962;2023-05-10T14:50:50;15.50;99.90
13336;DHT22;6737;51.480;11.962;2023-05-10T14:53:18;15.40;99.90
13336;DHT22;6737;51.480;11.962;2023-05-10T14:55:43;15.50;99.90
13336;DHT22;6737;51.480;11.962;2023-05-10T14:58:09;15.40;99.90
13336;DHT22;6737;51.480;11.962;2023-05-10T15:00:35;15.50;99.90
13336;DHT22;6737;51.480;11.962;2023-05-10T15:03:01;15.40;99.90
13336;DHT22;6737;51.480;11.962;2023-05-10T15:05:27;15.40;99.90
13336;DHT22;6737;51.480;11.962;2023-05-10T15:07:53;15.50;99.90
13336;DHT22;6737;51.480;11.962;2023-05-10T15:10:18;15.40;99.90
13336;DHT22;6737;51.480;11.962;2023-05-10T15:12:44;15.50;99.90
13336;DHT22;6737;51.480;11.962;2023-05-10T15:15:10;15.50;99.90
13336;DHT22;6737;51.480;11.962;2023-05-10T15:17:36;15.40;99.90
13336;DHT22;6737;51.480;11.962;2023-05-10T15:20:02;15.50;99.90
13336;DHT22;6737;51.480;11.962;2023-05-10T15:22:29;15.40;99.90
13336;DHT22;6737;51.480;11.962;2023-05-10T15:24:57;15.40;99.90
13336;DHT22;6737;51.480;11.962;2023-05-10T15:27:24;15.40;99.90
13336;DHT22;6737;51.480;11.962;2023-05-10T15:29:51;15.40;99.90
13336;DHT22;6737;51.480;11.962;2023-05-10T15:32:16;15.50;99.90
13336;DHT22;6737;51.480;11.962;2023-05-10T15:34:42;15.50;99.90
13336;DHT22;6737;51.480;11.962;2023-05-10T15:37:08;15.50;99.90
13336;DHT22;6737;51.480;11.962;2023-05-10T15:39:34;15.40;99.90
13336;DHT22;6737;51.480;11.962;2023-05-10T15:41:59;15.50;99.90
13336;DHT22;6737;51.480;11.962;2023-05-10T15:44:26;15.50;99.90
13336;DHT22;6737;51.480;11.962;2023-05-10T15:46:52;15.50;99.90
13336;DHT22;6737;51.480;11.962;2023-05-10T15:49:18;15.50;99.90
13336;DHT22;6737;51.480;11.962;2023-05-10T15:51:44;15.50;99.90
13336;DHT22;6737;51.480;11.962;2023-05-10T15:54:09;15.50;99.90
13336;DHT22;6737;51.480;11.962;2023-05-10T15:56:35;15.50;99.90
13336;DHT22;6737;51.480;11.962;2023-05-10T15:59:01;15.40;99.90
13336;DHT22;6737;51.480;11.962;2023-05-10T16:01:28;15.40;99.90
13336;DHT22;6737;51.480;11.962;2023-05-10T16:03:55;15.40;99.90
13336;DHT22;6737;51.480;11.962;2023-05-10T16:06:21;15.40;99.90